createdAt,value
2019-05-15T00:00:49.766Z,9.50
2019-05-15T00:03:19.793Z,9.50
2019-05-15T00:05:49.735Z,9.50
2019-05-15T00:08:19.300Z,9.40
2019-05-15T00:10:48.645Z,9.40
2019-05-15T00:13:18.522Z,9.40
2019-05-15T00:15:48.253Z,9.30
2019-05-15T00:18:18.555Z,9.30
2019-05-15T00:20:49.604Z,9.30
2019-05-15T00:23:19.326Z,9.30
2019-05-15T00:25:48.931Z,9.20
2019-05-15T00:28:18.617Z,9.20
2019-05-15T00:30:48.267Z,9.20
2019-05-15T00:33:19.294Z,9.20
2019-05-15T00:35:48.891Z,9.20
2019-05-15T00:38:18.736Z,9.10
2019-05-15T00:40:49.558Z,9.10
2019-05-15T00:43:19.250Z,9.10
2019-05-15T00:45:48.970Z,9.10
2019-05-15T00:48:18.533Z,9.10
2019-05-15T00:50:48.533Z,9.00
2019-05-15T00:53:19.621Z,9.00
2019-05-15T00:55:49.809Z,9.00
2019-05-15T00:58:19.918Z,8.90
2019-05-15T01:00:49.550Z,8.90
2019-05-15T01:03:18.900Z,8.90
2019-05-15T01:05:48.281Z,8.90
2019-05-15T01:08:19.262Z,8.90
2019-05-15T01:10:49.953Z,8.80
2019-05-15T01:13:19.245Z,8.80
2019-05-15T01:15:49.091Z,8.70
2019-05-15T01:18:18.831Z,8.70
2019-05-15T01:20:49.376Z,8.70
2019-05-15T01:23:18.939Z,8.70
2019-05-15T01:25:48.383Z,8.60
2019-05-15T01:28:18.423Z,8.60
2019-05-15T01:30:48.587Z,8.60
2019-05-15T01:33:18.952Z,8.60
2019-05-15T01:35:48.845Z,8.60
2019-05-15T01:38:19.010Z,8.60
2019-05-15T01:40:48.647Z,8.60
2019-05-15T01:43:18.860Z,8.50
2019-05-15T01:45:48.544Z,8.50
2019-05-15T01:48:18.911Z,8.50
2019-05-15T01:50:49.211Z,8.50
2019-05-15T01:53:18.864Z,8.50
2019-05-15T01:55:48.469Z,8.40
2019-05-15T01:58:18.596Z,8.40
2019-05-15T02:00:48.617Z,8.40
2019-05-15T02:03:18.390Z,8.40
2019-05-15T02:05:48.203Z,8.40
2019-05-15T02:08:19.100Z,8.30
2019-05-15T02:10:49.453Z,8.30
2019-05-15T02:13:19.194Z,8.30
2019-05-15T02:15:48.489Z,8.30
2019-05-15T02:18:19.179Z,8.30
2019-05-15T02:20:49.819Z,8.20
2019-05-15T02:23:19.206Z,8.20
2019-05-15T02:25:48.468Z,8.20
2019-05-15T02:28:18.342Z,8.20
2019-05-15T02:30:50.405Z,8.20
2019-05-15T02:33:19.133Z,8.10
2019-05-15T02:35:50.287Z,8.10
2019-05-15T02:38:20.083Z,8.10
2019-05-15T02:40:49.699Z,8.00
2019-05-15T02:43:20.120Z,8.00
2019-05-15T02:45:50.966Z,8.00
2019-05-15T02:48:20.652Z,8.00
2019-05-15T02:50:50.347Z,8.00
2019-05-15T02:53:19.732Z,7.90
2019-05-15T02:55:49.637Z,7.90
2019-05-15T02:58:21.127Z,7.90
2019-05-15T03:00:53.318Z,7.90
2019-05-15T03:03:21.128Z,7.80
2019-05-15T03:05:50.431Z,7.80
2019-05-15T03:08:19.878Z,7.80
2019-05-15T03:10:49.940Z,7.70
2019-05-15T03:13:19.723Z,7.70
2019-05-15T03:15:49.285Z,7.60
2019-05-15T03:18:19.498Z,7.60
2019-05-15T03:20:50.066Z,7.60
2019-05-15T03:23:20.194Z,7.60
2019-05-15T03:25:49.755Z,7.50
2019-05-15T03:28:19.343Z,7.50
2019-05-15T03:31:15.736Z,7.50
2019-05-15T03:33:27.370Z,7.40
2019-05-15T03:35:54.329Z,7.40
2019-05-15T03:38:21.938Z,7.30
2019-05-15T03:40:51.204Z,7.30
2019-05-15T03:43:20.513Z,7.30
2019-05-15T03:45:49.810Z,7.20
2019-05-15T03:48:19.672Z,7.20
2019-05-15T03:50:49.198Z,7.20
2019-05-15T03:53:19.305Z,7.20
2019-05-15T03:55:49.207Z,7.20
2019-05-15T03:58:21.573Z,7.20
2019-05-15T04:00:49.967Z,7.20
2019-05-15T04:03:20.273Z,7.10
2019-05-15T04:05:49.813Z,7.10
2019-05-15T04:08:19.594Z,7.10
2019-05-15T04:10:49.082Z,7.10
2019-05-15T04:13:19.478Z,7.10
2019-05-15T04:15:50.237Z,7.00
2019-05-15T04:18:20.205Z,7.00
2019-05-15T04:20:49.635Z,7.00
2019-05-15T04:23:23.266Z,7.10
2019-05-15T04:25:53.564Z,7.00
2019-05-15T04:28:22.848Z,7.00
2019-05-15T04:30:52.144Z,7.00
2019-05-15T04:33:21.452Z,7.00
2019-05-15T04:35:50.735Z,7.00
2019-05-15T04:38:21.018Z,7.00
2019-05-15T04:40:50.365Z,6.90
2019-05-15T04:43:19.742Z,6.90
2019-05-15T04:45:49.727Z,6.90
2019-05-15T04:48:19.978Z,6.90
2019-05-15T04:50:49.945Z,6.90
2019-05-15T04:53:19.519Z,6.90
2019-05-15T04:55:49.302Z,6.90
2019-05-15T04:58:20.772Z,7.00
2019-05-15T05:00:52.335Z,7.00
2019-05-15T05:03:22.159Z,6.90
2019-05-15T05:05:51.518Z,7.00
2019-05-15T05:08:21.198Z,7.10
2019-05-15T05:10:50.673Z,7.10
2019-05-15T05:13:20.493Z,7.10
2019-05-15T05:15:50.636Z,7.20
2019-05-15T05:18:20.348Z,7.20
2019-05-15T05:20:50.281Z,7.40
2019-05-15T05:23:19.650Z,7.50
2019-05-15T05:25:49.525Z,7.60
2019-05-15T05:28:19.262Z,7.70
2019-05-15T05:30:49.665Z,7.80
2019-05-15T05:33:18.986Z,8.00
2019-05-15T05:35:48.930Z,8.10
2019-05-15T05:38:19.738Z,8.20
2019-05-15T05:40:50.192Z,8.30
2019-05-15T05:43:20.076Z,8.40
2019-05-15T05:45:49.670Z,8.50
2019-05-15T05:48:19.348Z,8.70
2019-05-15T05:50:49.837Z,8.80
2019-05-15T05:53:21.345Z,9.00
2019-05-15T05:55:53.131Z,9.10
2019-05-15T05:58:21.647Z,9.20
2019-05-15T06:00:51.174Z,9.40
2019-05-15T06:03:21.239Z,9.60
2019-05-15T06:05:50.531Z,9.70
2019-05-15T06:08:20.267Z,9.80
2019-05-15T06:10:50.782Z,10.00
2019-05-15T06:13:20.077Z,10.20
2019-05-15T06:15:49.391Z,10.40
2019-05-15T06:18:19.603Z,10.60
2019-05-15T06:20:49.937Z,10.70
2019-05-15T06:23:25.078Z,10.80
2019-05-15T06:25:50.809Z,10.90
2019-05-15T06:28:20.516Z,11.00
2019-05-15T06:30:49.978Z,11.10
2019-05-15T06:33:20.359Z,11.40
2019-05-15T06:35:49.650Z,11.40
2019-05-15T06:38:19.702Z,11.50
2019-05-15T06:40:50.246Z,11.70
2019-05-15T06:43:19.756Z,11.70
2019-05-15T06:45:49.383Z,11.90
2019-05-15T06:48:19.010Z,12.00
2019-05-15T06:50:49.022Z,12.00
2019-05-15T06:53:19.424Z,12.10
2019-05-15T06:55:49.205Z,12.20
2019-05-15T06:58:19.480Z,12.40
2019-05-15T07:00:49.713Z,12.70
2019-05-15T07:03:25.512Z,12.80
2019-05-15T07:05:51.321Z,12.90
2019-05-15T07:08:20.633Z,13.10
2019-05-15T07:10:50.102Z,13.30
2019-05-15T07:13:19.420Z,13.40
2019-05-15T07:15:49.602Z,13.60
2019-05-15T07:18:20.043Z,13.70
2019-05-15T07:20:49.542Z,13.70
2019-05-15T07:23:20.035Z,13.70
2019-05-15T07:25:50.096Z,13.90
2019-05-15T07:28:19.675Z,14.00
2019-05-15T07:30:49.647Z,14.20
2019-05-15T07:33:35.313Z,14.30
2019-05-15T07:35:51.358Z,14.30
2019-05-15T07:38:20.648Z,14.10
2019-05-15T07:40:59.323Z,14.20
2019-05-15T07:43:20.950Z,14.40
2019-05-15T07:45:54.576Z,14.40
2019-05-15T07:48:21.263Z,14.60
2019-05-15T07:50:50.553Z,14.80
2019-05-15T07:53:20.336Z,14.90
2019-05-15T07:55:51.139Z,14.90
2019-05-15T07:58:22.211Z,15.10
2019-05-15T08:00:51.627Z,15.20
2019-05-15T08:03:21.054Z,15.30
2019-05-15T08:05:59.226Z,15.40
2019-05-15T08:08:22.333Z,15.40
2019-05-15T08:10:51.621Z,15.60
2019-05-15T08:13:20.919Z,15.70
2019-05-15T08:15:50.227Z,15.80
2019-05-15T08:18:19.528Z,15.80
2019-05-15T08:20:49.385Z,15.80
2019-05-15T08:23:19.526Z,15.80
2019-05-15T08:25:50.117Z,15.80
2019-05-15T08:28:19.479Z,15.70
2019-05-15T08:30:49.734Z,15.80
2019-05-15T08:33:19.421Z,15.80
2019-05-15T08:35:51.625Z,15.70
2019-05-15T08:38:19.820Z,15.80
2019-05-15T08:40:49.302Z,16.00
2019-05-15T08:43:18.975Z,15.90
2019-05-15T08:45:49.574Z,16.00
2019-05-15T08:48:19.261Z,16.20
2019-05-15T08:50:49.032Z,16.10
2019-05-15T08:53:19.281Z,16.10
2019-05-15T08:55:50.150Z,16.20
2019-05-15T08:58:20.594Z,16.50
2019-05-15T09:00:52.259Z,16.70
2019-05-15T09:03:21.230Z,16.80
2019-05-15T09:05:50.531Z,16.80
2019-05-15T09:08:20.020Z,16.80
2019-05-15T09:10:50.226Z,16.80
2019-05-15T09:13:19.886Z,17.10
2019-05-15T09:15:49.765Z,17.20
2019-05-15T09:18:20.182Z,17.20
2019-05-15T09:20:50.990Z,17.30
2019-05-15T09:23:20.330Z,17.20
2019-05-15T09:25:50.638Z,17.20
2019-05-15T09:28:19.948Z,17.50
2019-05-15T09:30:49.504Z,17.70
2019-05-15T09:33:19.919Z,17.70
2019-05-15T09:35:49.863Z,17.80
2019-05-15T09:38:19.188Z,17.70
2019-05-15T09:40:50.497Z,17.90
2019-05-15T09:43:19.526Z,18.00
2019-05-15T09:45:49.534Z,18.00
2019-05-15T09:48:20.056Z,18.10
2019-05-15T09:50:49.718Z,18.20
2019-05-15T09:53:19.426Z,18.10
2019-05-15T09:55:49.775Z,18.30
2019-05-15T09:58:20.822Z,18.20
2019-05-15T10:00:52.546Z,18.10
2019-05-15T10:03:21.475Z,18.30
2019-05-15T10:05:50.965Z,18.40
2019-05-15T10:08:21.237Z,18.60
2019-05-15T10:10:51.180Z,18.50
2019-05-15T10:13:20.466Z,18.50
2019-05-15T10:15:51.167Z,18.50
2019-05-15T10:18:20.644Z,18.60
2019-05-15T10:20:49.935Z,18.60
2019-05-15T10:23:19.914Z,18.80
2019-05-15T10:28:19.206Z,18.70
2019-05-15T10:30:49.775Z,18.60
2019-05-15T10:33:20.372Z,18.60
2019-05-15T10:35:50.047Z,18.60
2019-05-15T10:38:19.686Z,18.70
2019-05-15T10:41:03.622Z,19.00
2019-05-15T10:43:21.045Z,18.70
2019-05-15T10:45:54.201Z,18.80
2019-05-15T10:48:21.582Z,18.80
2019-05-15T10:50:50.869Z,18.90
2019-05-15T10:53:20.163Z,19.10
2019-05-15T10:55:50.618Z,19.20
2019-05-15T10:58:22.045Z,19.10
2019-05-15T11:00:50.918Z,19.10
2019-05-15T11:03:20.318Z,19.20
2019-05-15T11:05:49.661Z,19.00
2019-05-15T11:08:19.260Z,19.00
2019-05-15T11:10:49.331Z,19.00
2019-05-15T11:13:20.298Z,19.00
2019-05-15T11:15:49.612Z,19.00
2019-05-15T11:18:18.967Z,19.10
2019-05-15T11:20:48.965Z,19.20
2019-05-15T11:23:20.044Z,19.30
2019-05-15T11:25:49.497Z,19.40
2019-05-15T11:28:18.768Z,19.50
2019-05-15T11:30:48.916Z,19.20
2019-05-15T11:33:19.202Z,19.00
2019-05-15T11:36:00.394Z,19.20
2019-05-15T11:38:19.906Z,19.30
2019-05-15T11:40:49.219Z,19.40
2019-05-15T11:43:19.751Z,19.50
2019-05-15T11:45:49.472Z,19.70
2019-05-15T11:48:20.658Z,19.60
2019-05-15T11:50:49.752Z,19.70
2019-05-15T11:53:19.423Z,19.80
2019-05-15T11:55:48.775Z,20.10
2019-05-15T11:58:18.847Z,20.00
2019-05-15T12:00:49.286Z,19.60
2019-05-15T12:03:19.229Z,19.70
2019-05-15T12:05:48.628Z,19.50
2019-05-15T12:08:18.615Z,19.50
2019-05-15T12:10:48.215Z,19.80
2019-05-15T12:13:18.914Z,19.70
2019-05-15T12:15:48.776Z,19.50
2019-05-15T12:18:18.218Z,19.40
2019-05-15T12:20:48.633Z,19.60
2019-05-15T12:23:19.250Z,19.60
2019-05-15T12:25:49.021Z,19.30
2019-05-15T12:28:18.432Z,19.20
2019-05-15T12:30:49.375Z,19.40
2019-05-15T12:33:18.741Z,19.30
2019-05-15T12:35:50.696Z,19.20
2019-05-15T12:38:19.124Z,19.30
2019-05-15T13:00:57.995Z,19.10
2019-05-15T13:03:28.879Z,19.30
2019-05-15T13:05:58.427Z,19.50
2019-05-15T13:08:28.987Z,19.50
2019-05-15T13:10:58.637Z,19.40
2019-05-15T13:13:28.389Z,19.20
2019-05-15T13:15:58.932Z,19.10
2019-05-15T13:18:28.803Z,19.10
2019-05-15T13:20:59.544Z,19.30
2019-05-15T13:23:29.088Z,19.40
2019-05-15T13:25:59.234Z,19.50
2019-05-15T13:28:29.267Z,19.40
2019-05-15T13:30:59.584Z,19.40
2019-05-15T13:33:30.263Z,19.00
2019-05-15T13:35:59.560Z,18.90
2019-05-15T13:38:29.020Z,18.80
2019-05-15T13:40:58.920Z,18.60
2019-05-15T13:43:29.168Z,18.80
2019-05-15T13:45:59.782Z,18.80
2019-05-15T13:48:30.048Z,19.00
2019-05-15T13:50:59.539Z,18.90
2019-05-15T13:53:29.050Z,18.80
2019-05-15T13:55:58.487Z,18.90
2019-05-15T13:58:28.357Z,18.70
2019-05-15T14:00:58.957Z,18.70
2019-05-15T14:03:28.736Z,18.60
2019-05-15T14:05:59.247Z,18.60
2019-05-15T14:08:28.919Z,18.60
2019-05-15T14:10:58.475Z,18.60
2019-05-15T14:13:28.988Z,18.50
2019-05-15T14:16:02.924Z,18.60
2019-05-15T14:18:32.310Z,18.80
2019-05-15T14:21:01.635Z,18.70
2019-05-15T14:23:30.934Z,18.70
2019-05-15T14:26:13.037Z,18.60
2019-05-15T14:28:31.234Z,18.40
2019-05-15T14:31:00.721Z,18.40
2019-05-15T14:33:30.025Z,18.60
2019-05-15T14:35:59.303Z,18.60
2019-05-15T14:38:29.023Z,19.00
2019-05-15T14:40:59.235Z,19.00
2019-05-15T14:43:29.418Z,19.10
2019-05-15T14:45:59.247Z,19.00
2019-05-15T14:48:28.553Z,19.20
2019-05-15T14:50:58.349Z,18.90
2019-05-15T14:53:29.603Z,18.60
2019-05-15T14:56:00.412Z,18.60
2019-05-15T14:58:29.958Z,18.80
2019-05-15T15:01:03.498Z,18.60
2019-05-15T15:03:30.267Z,18.60
2019-05-15T15:05:59.567Z,18.50
2019-05-15T15:08:30.803Z,18.50
2019-05-15T15:11:00.337Z,18.60
2019-05-15T15:13:30.006Z,18.50
2019-05-15T15:15:59.315Z,18.40
2019-05-15T15:18:28.667Z,18.40
2019-05-15T15:20:58.142Z,18.30
2019-05-15T15:23:28.397Z,18.20
2019-05-15T15:25:58.358Z,18.20
2019-05-15T15:28:28.016Z,18.10
2019-05-15T15:30:58.120Z,18.10
2019-05-15T15:33:28.799Z,18.10
2019-05-15T15:35:58.431Z,18.10
2019-05-15T15:38:40.285Z,18.00
2019-05-15T15:41:00.395Z,18.10
2019-05-15T15:43:29.770Z,18.00
2019-05-15T15:45:59.138Z,18.00
2019-05-15T15:48:28.858Z,18.10
2019-05-15T15:50:58.848Z,18.10
2019-05-15T15:53:28.718Z,18.00
2019-05-15T15:55:58.212Z,17.90
2019-05-15T15:58:28.974Z,17.70
2019-05-15T16:00:58.606Z,17.70
2019-05-15T16:03:28.657Z,17.70
2019-05-15T16:05:58.291Z,17.80
2019-05-15T16:08:28.532Z,17.90
2019-05-15T16:10:58.971Z,17.90
2019-05-15T16:13:29.207Z,17.80
2019-05-15T16:15:58.775Z,17.70
2019-05-15T16:18:29.826Z,17.70
2019-05-15T16:20:59.223Z,17.70
2019-05-15T16:23:28.768Z,17.60
2019-05-15T16:26:01.017Z,17.60
2019-05-15T16:28:29.491Z,17.60
2019-05-15T16:30:58.838Z,17.50
2019-05-15T16:33:28.453Z,17.50
2019-05-15T16:35:58.506Z,17.40
2019-05-15T16:38:28.376Z,17.40
2019-05-15T16:40:58.413Z,17.30
2019-05-15T16:43:28.618Z,17.40
2019-05-15T16:45:58.765Z,17.30
2019-05-15T16:48:29.381Z,17.20
2019-05-15T16:50:59.983Z,17.20
2019-05-15T16:53:29.275Z,17.20
2019-05-15T16:55:58.891Z,17.10
2019-05-15T16:58:29.784Z,17.00
2019-05-15T17:00:59.168Z,16.90
2019-05-15T17:03:28.904Z,16.80
2019-05-15T17:05:58.938Z,16.80
2019-05-15T17:08:31.785Z,16.80
2019-05-15T17:10:59.443Z,16.70
2019-05-15T17:13:29.809Z,16.70
2019-05-15T17:15:59.127Z,16.70
2019-05-15T17:18:29.411Z,16.60
2019-05-15T17:20:59.795Z,16.60
2019-05-15T17:23:29.119Z,16.60
2019-05-15T17:25:58.423Z,16.60
2019-05-15T17:28:29.069Z,16.60
2019-05-15T17:30:58.774Z,16.60
2019-05-15T17:33:28.850Z,16.60
2019-05-15T17:35:58.543Z,16.50
2019-05-15T17:38:28.671Z,16.50
2019-05-15T17:40:58.279Z,16.50
2019-05-15T17:43:28.769Z,16.40
2019-05-15T17:45:58.448Z,16.40
2019-05-15T17:48:28.829Z,16.30
2019-05-15T17:50:59.414Z,16.30
2019-05-15T17:53:28.965Z,16.20
2019-05-15T17:55:58.777Z,16.10
2019-05-15T17:58:28.802Z,16.10
2019-05-15T18:00:59.522Z,16.00
2019-05-15T18:03:29.100Z,16.00
2019-05-15T18:05:59.508Z,15.90
2019-05-15T18:08:28.916Z,15.90
2019-05-15T18:10:58.940Z,15.90
2019-05-15T18:13:28.678Z,15.90
2019-05-15T18:16:03.193Z,15.90
2019-05-15T18:18:29.235Z,15.80
2019-05-15T18:20:58.526Z,15.70
2019-05-15T18:23:27.870Z,15.70
2019-05-15T18:25:58.444Z,15.70
2019-05-15T18:28:32.544Z,15.60
2019-05-15T18:31:01.838Z,15.60
2019-05-15T18:33:31.127Z,15.50
2019-05-15T18:36:00.419Z,15.50
2019-05-15T18:38:29.799Z,15.50
2019-05-15T18:41:00.430Z,15.40
2019-05-15T18:43:29.739Z,15.40
2019-05-15T18:45:59.114Z,15.40
2019-05-15T18:48:28.848Z,15.30
2019-05-15T18:50:58.729Z,15.30
2019-05-15T18:53:28.421Z,15.30
2019-05-15T18:55:58.429Z,15.20
2019-05-15T18:58:27.823Z,15.20
2019-05-15T19:00:58.339Z,15.10
2019-05-15T19:03:28.042Z,15.10
2019-05-15T19:05:58.466Z,15.00
2019-05-15T19:08:28.372Z,15.00
2019-05-15T19:10:59.450Z,14.90
2019-05-15T19:13:28.735Z,14.90
2019-05-15T19:15:58.197Z,14.80
2019-05-15T19:18:28.027Z,14.80
2019-05-15T19:20:58.602Z,14.70
2019-05-15T19:23:28.157Z,14.70
2019-05-15T19:25:58.578Z,14.60
2019-05-15T19:28:28.599Z,14.50
2019-05-15T19:30:58.697Z,14.50
2019-05-15T19:33:36.460Z,14.40
2019-05-15T19:36:02.289Z,14.40
2019-05-15T19:38:31.836Z,14.40
2019-05-15T19:41:03.041Z,14.30
2019-05-15T19:43:32.240Z,14.30
2019-05-15T19:46:01.546Z,14.20
2019-05-15T19:48:30.868Z,14.10
2019-05-15T19:51:01.395Z,14.10
2019-05-15T19:53:30.698Z,14.10
2019-05-15T19:55:59.988Z,14.00
2019-05-15T19:58:29.727Z,13.90
2019-05-15T20:00:59.016Z,13.90
2019-05-15T20:03:28.487Z,13.80
2019-05-15T20:06:01.402Z,13.80
2019-05-15T20:08:30.085Z,13.70
2019-05-15T20:11:00.471Z,13.60
2019-05-15T20:13:31.362Z,13.60
2019-05-15T20:16:00.644Z,13.60
2019-05-15T20:18:29.949Z,13.50
2019-05-15T20:20:59.309Z,13.50
2019-05-15T20:23:28.977Z,13.40
2019-05-15T20:25:58.366Z,13.40
2019-05-15T20:28:28.618Z,13.40
2019-05-15T20:30:59.337Z,13.30
2019-05-15T20:33:28.740Z,13.30
2019-05-15T20:35:59.176Z,13.30
2019-05-15T20:38:28.738Z,13.20
2019-05-15T20:40:59.668Z,13.10
2019-05-15T20:43:29.403Z,13.10
2019-05-15T20:45:58.971Z,13.00
2019-05-15T20:48:29.346Z,13.00
2019-05-15T20:50:59.090Z,13.00
2019-05-15T20:53:28.792Z,12.90
2019-05-15T20:55:58.907Z,12.90
2019-05-15T20:58:28.314Z,12.80
2019-05-15T21:00:59.167Z,12.80
2019-05-15T21:03:29.803Z,12.70
2019-05-15T21:06:00.844Z,12.70
2019-05-15T21:08:30.273Z,12.70
2019-05-15T21:10:59.582Z,12.60
2019-05-15T21:13:29.838Z,12.50
2019-05-15T21:16:03.759Z,12.50
2019-05-15T21:18:32.770Z,12.40
2019-05-15T21:21:02.073Z,12.40
2019-05-15T21:23:31.357Z,12.40
2019-05-15T21:26:00.657Z,12.30
2019-05-15T21:28:30.169Z,12.30
2019-05-15T21:30:59.521Z,12.30
2019-05-15T21:33:29.201Z,12.20
2019-05-15T21:35:58.510Z,12.20
2019-05-15T21:38:28.441Z,12.10
2019-05-15T21:40:58.655Z,12.10
2019-05-15T21:43:28.276Z,12.00
2019-05-15T21:45:59.132Z,12.10
2019-05-15T21:48:28.899Z,12.00
2019-05-15T21:50:59.476Z,11.90
2019-05-15T21:53:28.900Z,11.90
2019-05-15T21:55:58.829Z,11.90
2019-05-15T21:58:28.550Z,11.80
2019-05-15T22:00:58.290Z,11.80
2019-05-15T22:03:28.849Z,11.80
2019-05-15T22:05:58.780Z,11.80
2019-05-15T22:08:28.179Z,11.70
2019-05-15T22:10:58.449Z,11.70
2019-05-15T22:13:28.572Z,11.60
2019-05-15T22:15:59.420Z,11.60
2019-05-15T22:18:28.908Z,11.60
2019-05-15T22:20:58.491Z,11.50
2019-05-15T22:23:28.163Z,11.50
2019-05-15T22:25:58.605Z,11.50
2019-05-15T22:28:28.355Z,11.40
2019-05-15T22:30:58.411Z,11.40
2019-05-15T22:33:28.438Z,11.40
2019-05-15T22:35:59.203Z,11.30
2019-05-15T22:38:30.042Z,11.30
2019-05-15T22:40:59.336Z,11.30
2019-05-15T22:43:28.913Z,11.20
2019-05-15T22:45:58.791Z,11.20
2019-05-15T22:48:28.683Z,11.20
2019-05-15T22:50:58.391Z,11.10
2019-05-15T22:53:28.991Z,11.10
2019-05-15T22:55:58.903Z,11.10
2019-05-15T22:58:28.338Z,11.10
2019-05-15T23:00:59.798Z,11.00
2019-05-15T23:03:28.650Z,11.00
2019-05-15T23:05:58.254Z,11.00
2019-05-15T23:08:29.242Z,10.90
2019-05-15T23:10:58.846Z,10.90
2019-05-15T23:13:29.328Z,10.80
2019-05-15T23:15:58.659Z,10.80
2019-05-15T23:18:28.016Z,10.70
2019-05-15T23:20:59.298Z,10.70
2019-05-15T23:23:28.658Z,10.70
2019-05-15T23:25:58.386Z,10.70
2019-05-15T23:28:28.230Z,10.60
2019-05-15T23:30:57.794Z,10.70
2019-05-15T23:33:28.214Z,10.70
2019-05-15T23:35:58.759Z,10.60
2019-05-15T23:38:29.311Z,10.60
2019-05-15T23:40:59.045Z,10.60
2019-05-15T23:43:28.477Z,10.60
2019-05-15T23:45:58.952Z,10.60
2019-05-15T23:48:28.551Z,10.50
2019-05-15T23:50:59.103Z,10.50
2019-05-15T23:53:28.973Z,10.50
2019-05-15T23:55:58.895Z,10.50
2019-05-15T23:58:29.076Z,10.40
